Time;durP1;ratioP1;P1;durP2;ratioP2;P2;SDS_P1;SDS_P2;PMS_P1;PMS_P2;Temp;Humidity;BMP_temperature;BMP_pressure;BME280_temperature;BME280_humidity;BME280_pressure;Samples;Min_cycle;Max_cycle;Signal;HPM_P1;HPM_P2
2022/10/24 00:00:16;;;;;;;2.63;0.90;;;;;;;;;;6284367;22;20069;-42
2022/10/24 00:02:42;;;;;;;4.63;1.40;;;;;;;;;;6285524;22;20011;-43
2022/10/24 00:05:11;;;;;;;2.20;0.68;;;;;;;;;;6284757;22;20019;-43
2022/10/24 00:07:38;;;;;;;1.85;0.50;;;;;;;;;;6282927;22;20015;-43
2022/10/24 00:10:06;;;;;;;2.95;1.05;;;;;;;;;;6258502;22;20092;-43
2022/10/24 00:12:33;;;;;;;1.73;0.40;;;;;;;;;;6282161;22;20460;-44
2022/10/24 00:15:00;;;;;;;2.27;0.60;;;;;;;;;;6282416;22;20554;-42
2022/10/24 00:17:26;;;;;;;1.60;0.50;;;;;;;;;;6287316;22;20701;-45
2022/10/24 00:19:54;;;;;;;4.03;1.10;;;;;;;;;;6284088;22;20019;-45
2022/10/24 00:22:20;;;;;;;4.05;1.27;;;;;;;;;;6287476;22;20438;-42
2022/10/24 00:24:47;;;;;;;2.47;0.90;;;;;;;;;;6286747;22;20065;-43
2022/10/24 00:27:15;;;;;;;4.73;0.93;;;;;;;;;;6283262;22;20039;-42
2022/10/24 00:29:41;;;;;;;3.33;1.13;;;;;;;;;;6285862;22;20019;-45
2022/10/24 00:32:08;;;;;;;2.33;0.77;;;;;;;;;;6278522;22;20017;-42
2022/10/24 00:34:35;;;;;;;1.80;0.40;;;;;;;;;;6287245;22;20015;-44
2022/10/24 00:37:02;;;;;;;1.45;0.40;;;;;;;;;;6285604;22;20458;-43
2022/10/24 00:39:28;;;;;;;2.80;0.67;;;;;;;;;;6282600;22;20015;-43
2022/10/24 00:41:57;;;;;;;1.88;0.45;;;;;;;;;;6288234;22;20015;-42
2022/10/24 00:44:27;;;;;;;2.35;0.75;;;;;;;;;;6278947;22;20019;-43
2022/10/24 00:46:55;;;;;;;2.10;0.50;;;;;;;;;;6285848;22;20081;-42
2022/10/24 00:49:24;;;;;;;2.00;0.47;;;;;;;;;;6282571;22;20018;-42
2022/10/24 00:51:52;;;;;;;2.57;1.10;;;;;;;;;;6286590;22;20011;-43
2022/10/24 00:54:19;;;;;;;2.47;0.85;;;;;;;;;;6284341;22;20065;-42
2022/10/24 00:56:48;;;;;;;2.42;0.77;;;;;;;;;;6277362;22;20007;-42
2022/10/24 00:59:16;;;;;;;2.97;0.85;;;;;;;;;;6286782;22;20850;-43
2022/10/24 01:01:45;;;;;;;2.63;0.93;;;;;;;;;;6282474;22;20020;-46
2022/10/24 01:04:13;;;;;;;2.40;0.93;;;;;;;;;;6280512;22;20465;-42
2022/10/24 01:06:44;;;;;;;4.55;2.22;;;;;;;;;;6284900;22;20041;-43
2022/10/24 01:09:18;;;;;;;3.33;1.05;;;;;;;;;;6279513;22;20069;-43
2022/10/24 01:11:53;;;;;;;3.65;1.00;;;;;;;;;;6287363;22;20038;-45
2022/10/24 01:14:25;;;;;;;3.15;0.93;;;;;;;;;;6283161;22;20015;-44
2022/10/24 01:16:58;;;;;;;3.47;0.90;;;;;;;;;;6285985;22;20011;-43
2022/10/24 01:19:36;;;;;;;2.15;0.70;;;;;;;;;;6282702;22;20058;-43
2022/10/24 01:22:05;;;;;;;2.50;1.05;;;;;;;;;;6245867;22;20522;-45
2022/10/24 01:24:44;;;;;;;1.85;0.45;;;;;;;;;;6283140;22;20080;-42
2022/10/24 01:27:24;;;;;;;2.92;0.85;;;;;;;;;;6285946;22;20026;-43
2022/10/24 01:29:56;;;;;;;2.30;0.80;;;;;;;;;;6289519;22;20011;-42
2022/10/24 01:32:29;;;;;;;2.85;1.05;;;;;;;;;;6282379;22;20043;-42
2022/10/24 01:34:57;;;;;;;2.35;0.77;;;;;;;;;;6286750;22;20019;-44
2022/10/24 01:37:28;;;;;;;19.42;2.20;;;;;;;;;;6278004;22;20019;-43
2022/10/24 01:39:56;;;;;;;1.65;0.40;;;;;;;;;;6263011;22;20015;-42
2022/10/24 01:42:25;;;;;;;2.00;0.70;;;;;;;;;;6279629;22;20019;-47
2022/10/24 01:44:55;;;;;;;2.30;0.63;;;;;;;;;;6256561;22;20085;-43
2022/10/24 01:47:24;;;;;;;3.95;1.38;;;;;;;;;;6271138;22;20015;-42
2022/10/24 01:49:53;;;;;;;2.80;1.10;;;;;;;;;;6282277;22;20068;-44
2022/10/24 01:52:20;;;;;;;2.10;0.57;;;;;;;;;;6281813;22;20023;-42
2022/10/24 01:54:47;;;;;;;2.50;0.97;;;;;;;;;;6282858;22;20181;-45
2022/10/24 01:57:14;;;;;;;2.88;0.70;;;;;;;;;;6259121;22;20015;-44
2022/10/24 01:59:42;;;;;;;2.03;0.73;;;;;;;;;;6281884;22;20015;-42
2022/10/24 02:02:13;;;;;;;2.70;1.15;;;;;;;;;;6285100;22;20469;-42
2022/10/24 02:04:42;;;;;;;3.75;1.65;;;;;;;;;;6283809;22;20019;-42
2022/10/24 02:07:09;;;;;;;2.30;0.90;;;;;;;;;;6287685;22;20031;-43
2022/10/24 02:09:38;;;;;;;3.45;1.20;;;;;;;;;;6281724;22;20023;-43
2022/10/24 02:12:05;;;;;;;3.63;1.50;;;;;;;;;;6285601;22;20045;-42
2022/10/24 02:14:33;;;;;;;3.67;1.45;;;;;;;;;;6281331;22;20012;-43
2022/10/24 02:17:00;;;;;;;4.15;1.63;;;;;;;;;;6279475;22;20042;-45
2022/10/24 02:19:28;;;;;;;4.23;1.20;;;;;;;;;;6287069;22;20023;-46
2022/10/24 02:21:59;;;;;;;4.53;1.98;;;;;;;;;;6221203;22;20020;-45
2022/10/24 02:24:28;;;;;;;3.58;1.60;;;;;;;;;;6198904;23;20020;-45
2022/10/24 02:26:57;;;;;;;3.17;1.33;;;;;;;;;;6222755;23;20016;-42
2022/10/24 02:29:24;;;;;;;4.35;2.10;;;;;;;;;;6224455;23;20016;-42
2022/10/24 02:31:53;;;;;;;4.50;1.97;;;;;;;;;;6221451;23;20020;-42
2022/10/24 02:34:22;;;;;;;4.13;2.33;;;;;;;;;;6227425;23;20043;-45
2022/10/24 02:36:51;;;;;;;4.35;2.03;;;;;;;;;;6221062;23;20046;-42
2022/10/24 02:39:18;;;;;;;2.90;1.27;;;;;;;;;;6224322;23;20012;-42
2022/10/24 02:41:45;;;;;;;3.08;1.30;;;;;;;;;;6221692;23;20058;-43
2022/10/24 02:44:13;;;;;;;5.50;2.10;;;;;;;;;;6223427;23;20099;-42
2022/10/24 02:46:40;;;;;;;4.55;2.30;;;;;;;;;;6222523;23;20012;-42
2022/10/24 02:49:07;;;;;;;5.07;1.58;;;;;;;;;;6224160;23;20446;-42
2022/10/24 02:51:35;;;;;;;6.60;1.75;;;;;;;;;;6227473;23;20071;-42
2022/10/24 02:54:03;;;;;;;4.38;1.52;;;;;;;;;;6219988;23;20530;-42
2022/10/24 02:56:30;;;;;;;3.10;1.37;;;;;;;;;;6191176;23;20126;-42
2022/10/24 02:58:56;;;;;;;3.08;1.10;;;;;;;;;;6222715;23;20016;-42
2022/10/24 03:01:23;;;;;;;2.10;0.63;;;;;;;;;;6222918;23;20090;-44
2022/10/24 03:03:50;;;;;;;3.13;1.05;;;;;;;;;;6219476;23;20020;-43
2022/10/24 03:06:16;;;;;;;2.40;0.80;;;;;;;;;;6226991;23;20613;-43
2022/10/24 03:08:43;;;;;;;3.53;1.50;;;;;;;;;;6194234;23;20581;-42
2022/10/24 03:11:10;;;;;;;3.53;1.50;;;;;;;;;;6225807;23;20012;-42
2022/10/24 03:13:37;;;;;;;3.35;1.10;;;;;;;;;;6220825;23;20071;-43
2022/10/24 03:16:04;;;;;;;3.75;1.20;;;;;;;;;;6198941;23;20028;-41
2022/10/24 03:18:30;;;;;;;2.75;1.15;;;;;;;;;;6223219;23;20030;-42
2022/10/24 03:20:57;;;;;;;4.20;0.97;;;;;;;;;;6256996;22;20073;-42
2022/10/24 03:23:27;;;;;;;3.53;1.15;;;;;;;;;;6282657;22;20380;-41
2022/10/24 03:25:54;;;;;;;3.58;1.30;;;;;;;;;;6274309;22;20169;-43
2022/10/24 03:28:22;;;;;;;4.25;1.55;;;;;;;;;;6283701;22;20026;-43
2022/10/24 03:30:48;;;;;;;5.15;1.65;;;;;;;;;;6282685;22;20068;-42
2022/10/24 03:33:15;;;;;;;2.63;0.93;;;;;;;;;;6273926;22;20636;-42
2022/10/24 03:35:42;;;;;;;3.30;1.42;;;;;;;;;;6282467;22;20015;-43
2022/10/24 03:38:08;;;;;;;2.40;0.82;;;;;;;;;;6285954;22;20495;-43
2022/10/24 03:40:35;;;;;;;2.00;0.60;;;;;;;;;;6280833;22;20916;-42
2022/10/24 03:43:01;;;;;;;1.80;0.40;;;;;;;;;;6286099;22;20065;-42
2022/10/24 03:45:29;;;;;;;2.53;0.77;;;;;;;;;;6273920;22;20019;-42
2022/10/24 03:47:56;;;;;;;2.03;0.60;;;;;;;;;;6285108;22;20430;-42
2022/10/24 03:50:22;;;;;;;1.88;0.57;;;;;;;;;;6287796;22;20019;-42
2022/10/24 03:52:49;;;;;;;1.60;0.40;;;;;;;;;;6282876;22;20011;-42
2022/10/24 03:55:15;;;;;;;2.17;0.63;;;;;;;;;;6256834;22;20434;-42
2022/10/24 03:57:42;;;;;;;2.30;0.70;;;;;;;;;;6281392;22;20015;-43
2022/10/24 04:00:09;;;;;;;1.70;0.47;;;;;;;;;;6287634;22;20076;-42
2022/10/24 04:02:37;;;;;;;1.83;0.57;;;;;;;;;;6279286;22;20029;-43
2022/10/24 04:05:03;;;;;;;1.38;0.30;;;;;;;;;;6285297;22;20023;-43
2022/10/24 04:07:30;;;;;;;1.70;0.40;;;;;;;;;;6280024;22;20023;-43
2022/10/24 04:09:56;;;;;;;1.70;0.40;;;;;;;;;;6286763;22;20523;-42
2022/10/24 04:12:23;;;;;;;1.48;0.30;;;;;;;;;;6279729;22;20445;-43
2022/10/24 04:14:49;;;;;;;1.92;0.50;;;;;;;;;;6286319;22;20080;-47
2022/10/24 04:17:16;;;;;;;1.25;0.20;;;;;;;;;;6277425;22;20015;-43
2022/10/24 04:19:44;;;;;;;1.63;0.40;;;;;;;;;;6283356;22;20385;-43
2022/10/24 04:22:10;;;;;;;1.50;0.30;;;;;;;;;;6286747;22;20015;-44
2022/10/24 04:24:38;;;;;;;1.63;0.40;;;;;;;;;;6274543;22;20404;-42
2022/10/24 04:27:04;;;;;;;1.92;0.30;;;;;;;;;;6283833;22;20011;-44
2022/10/24 04:29:31;;;;;;;1.55;0.32;;;;;;;;;;6277407;22;20021;-43
2022/10/24 04:31:57;;;;;;;4.28;0.40;;;;;;;;;;6284868;22;20030;-44
2022/10/24 04:34:24;;;;;;;1.63;0.40;;;;;;;;;;6281396;22;20442;-43
2022/10/24 04:36:52;;;;;;;1.45;0.30;;;;;;;;;;6286543;22;20019;-42
2022/10/24 04:39:19;;;;;;;1.30;0.30;;;;;;;;;;6281826;22;20026;-43
2022/10/24 04:41:46;;;;;;;1.52;0.35;;;;;;;;;;6286520;22;20029;-42
2022/10/24 04:44:12;;;;;;;1.50;0.32;;;;;;;;;;6252611;22;20282;-42
2022/10/24 04:46:39;;;;;;;1.40;0.30;;;;;;;;;;6285256;22;20058;-42
2022/10/24 04:49:05;;;;;;;1.50;0.30;;;;;;;;;;6253800;22;20007;-43
2022/10/24 04:51:32;;;;;;;1.60;0.40;;;;;;;;;;6287545;22;20011;-42
2022/10/24 04:53:59;;;;;;;1.67;0.40;;;;;;;;;;6284212;22;20015;-43
2022/10/24 04:56:26;;;;;;;1.58;0.30;;;;;;;;;;6284040;22;20015;-45
2022/10/24 04:58:52;;;;;;;1.57;0.40;;;;;;;;;;6281054;22;20858;-45
2022/10/24 05:01:19;;;;;;;1.75;0.40;;;;;;;;;;6284324;22;20026;-43
2022/10/24 05:03:45;;;;;;;1.50;0.35;;;;;;;;;;6282481;22;20065;-42
2022/10/24 05:06:12;;;;;;;1.63;0.40;;;;;;;;;;6285461;22;20585;-43
2022/10/24 05:08:38;;;;;;;1.65;0.45;;;;;;;;;;6283758;22;20016;-43
2022/10/24 05:11:08;;;;;;;1.70;0.40;;;;;;;;;;6285061;22;20018;-42
2022/10/24 05:13:35;;;;;;;1.88;0.50;;;;;;;;;;6287132;22;20019;-42
2022/10/24 05:16:01;;;;;;;2.15;0.73;;;;;;;;;;6279337;22;20533;-42
2022/10/24 05:18:28;;;;;;;1.30;0.30;;;;;;;;;;6283824;22;20011;-43
2022/10/24 05:20:55;;;;;;;1.70;0.43;;;;;;;;;;6282992;22;20193;-43
2022/10/24 05:23:22;;;;;;;1.90;0.40;;;;;;;;;;6258000;22;20423;-43
2022/10/24 05:25:48;;;;;;;2.10;0.50;;;;;;;;;;6284573;22;20442;-44
2022/10/24 05:28:16;;;;;;;1.73;0.40;;;;;;;;;;6284098;22;20022;-45
2022/10/24 05:30:43;;;;;;;1.73;0.45;;;;;;;;;;6282190;22;20544;-42
2022/10/24 05:33:10;;;;;;;1.80;0.40;;;;;;;;;;6274764;22;20015;-42
2022/10/24 05:35:36;;;;;;;1.60;0.40;;;;;;;;;;6282299;22;20437;-46
2022/10/24 05:38:03;;;;;;;1.73;0.60;;;;;;;;;;6286232;22;20031;-45
2022/10/24 05:40:29;;;;;;;1.35;0.30;;;;;;;;;;6283328;22;20015;-44
2022/10/24 05:42:56;;;;;;;1.65;0.50;;;;;;;;;;6287202;22;20011;-45
2022/10/24 05:45:24;;;;;;;1.77;0.40;;;;;;;;;;6275929;22;20471;-42
2022/10/24 05:47:50;;;;;;;2.40;0.70;;;;;;;;;;6286185;22;20022;-43
2022/10/24 05:50:17;;;;;;;1.40;0.30;;;;;;;;;;6251473;22;20400;-43
2022/10/24 05:52:43;;;;;;;2.40;0.98;;;;;;;;;;6284677;22;20505;-44
2022/10/24 05:55:10;;;;;;;2.10;0.90;;;;;;;;;;6284417;22;20064;-42
2022/10/24 05:57:37;;;;;;;1.80;0.60;;;;;;;;;;6283905;22;20106;-43
2022/10/24 06:00:05;;;;;;;1.70;0.40;;;;;;;;;;6259348;22;20461;-42
2022/10/24 06:02:32;;;;;;;2.30;0.60;;;;;;;;;;6284136;22;20022;-46
2022/10/24 06:04:59;;;;;;;1.85;0.60;;;;;;;;;;6288630;22;20015;-43
2022/10/24 06:07:26;;;;;;;2.33;0.43;;;;;;;;;;6280884;22;20061;-42
2022/10/24 06:09:52;;;;;;;1.35;0.30;;;;;;;;;;6286243;22;20012;-44
2022/10/24 06:12:19;;;;;;;1.20;0.30;;;;;;;;;;6282055;22;20062;-42
2022/10/24 06:14:45;;;;;;;1.55;0.40;;;;;;;;;;6287753;22;20015;-42
2022/10/24 06:17:12;;;;;;;1.40;0.40;;;;;;;;;;6282050;22;20023;-42
2022/10/24 06:19:41;;;;;;;1.20;0.22;;;;;;;;;;6287848;22;20019;-44
2022/10/24 06:22:08;;;;;;;1.63;0.40;;;;;;;;;;6285347;22;20019;-42
2022/10/24 06:24:34;;;;;;;1.63;0.37;;;;;;;;;;6284706;22;20438;-42
2022/10/24 06:27:01;;;;;;;1.60;0.30;;;;;;;;;;6258669;22;20102;-44
2022/10/24 06:29:27;;;;;;;1.55;0.30;;;;;;;;;;6247496;22;20065;-43
2022/10/24 06:31:54;;;;;;;1.55;0.30;;;;;;;;;;6287143;22;20015;-42
2022/10/24 06:34:21;;;;;;;1.40;0.30;;;;;;;;;;6284101;22;20050;-43
2022/10/24 06:36:49;;;;;;;3.67;0.80;;;;;;;;;;6287273;22;20026;-43
2022/10/24 06:39:16;;;;;;;1.80;0.40;;;;;;;;;;6281374;22;20011;-42
2022/10/24 06:41:42;;;;;;;3.15;0.88;;;;;;;;;;6290623;22;20065;-42
2022/10/24 06:44:08;;;;;;;2.80;0.57;;;;;;;;;;6283440;22;20018;-42
2022/10/24 06:46:35;;;;;;;1.58;0.30;;;;;;;;;;6288063;22;20019;-44
2022/10/24 06:49:01;;;;;;;1.60;0.50;;;;;;;;;;6281432;22;20422;-45
2022/10/24 06:51:28;;;;;;;2.50;0.70;;;;;;;;;;6286688;22;20015;-42
2022/10/24 06:53:57;;;;;;;1.73;0.40;;;;;;;;;;6255588;22;20011;-42
2022/10/24 06:56:23;;;;;;;1.90;0.60;;;;;;;;;;6258988;22;20027;-42
2022/10/24 06:58:50;;;;;;;1.42;0.32;;;;;;;;;;6276188;22;20470;-45
2022/10/24 07:01:17;;;;;;;1.70;0.40;;;;;;;;;;6277583;22;20420;-42
2022/10/24 07:03:44;;;;;;;1.50;0.30;;;;;;;;;;6277317;22;20229;-44
2022/10/24 07:06:13;;;;;;;1.88;0.43;;;;;;;;;;6279560;22;20437;-42
2022/10/24 07:08:40;;;;;;;1.50;0.50;;;;;;;;;;6275613;22;20454;-43
2022/10/24 07:11:08;;;;;;;1.90;0.60;;;;;;;;;;6268264;22;20015;-43
2022/10/24 07:13:34;;;;;;;1.37;0.30;;;;;;;;;;6265990;22;20446;-42
2022/10/24 07:16:01;;;;;;;2.33;0.40;;;;;;;;;;6274942;22;20015;-42
2022/10/24 07:18:27;;;;;;;1.73;0.50;;;;;;;;;;6282728;22;20478;-43
2022/10/24 07:20:54;;;;;;;1.67;0.45;;;;;;;;;;6287181;22;20102;-42
2022/10/24 07:23:20;;;;;;;1.88;0.30;;;;;;;;;;6283337;22;20068;-44
2022/10/24 07:25:47;;;;;;;1.67;0.30;;;;;;;;;;6287428;22;20015;-42
2022/10/24 07:28:14;;;;;;;1.55;0.35;;;;;;;;;;6281865;22;20187;-42
2022/10/24 07:30:44;;;;;;;2.35;0.60;;;;;;;;;;6285261;22;20019;-42
2022/10/24 07:33:10;;;;;;;1.73;0.43;;;;;;;;;;6282796;22;20011;-44
2022/10/24 07:35:41;;;;;;;2.03;0.65;;;;;;;;;;6284300;22;20023;-42
2022/10/24 07:38:07;;;;;;;1.80;0.50;;;;;;;;;;6283880;22;20090;-45
2022/10/24 07:40:34;;;;;;;1.38;0.32;;;;;;;;;;6279026;22;20022;-43
2022/10/24 07:43:01;;;;;;;3.28;0.40;;;;;;;;;;6287015;22;20011;-42
2022/10/24 07:45:31;;;;;;;2.13;0.63;;;;;;;;;;6279089;22;20011;-43
2022/10/24 07:47:58;;;;;;;2.03;0.60;;;;;;;;;;6287814;22;20027;-42
2022/10/24 07:50:25;;;;;;;2.27;0.77;;;;;;;;;;6277006;22;20027;-43
2022/10/24 07:52:52;;;;;;;1.75;0.40;;;;;;;;;;6255571;22;20015;-43
2022/10/24 07:55:18;;;;;;;1.85;0.50;;;;;;;;;;6276640;22;20450;-45
2022/10/24 07:57:44;;;;;;;1.90;0.68;;;;;;;;;;6278955;22;20062;-43
2022/10/24 08:00:11;;;;;;;2.17;0.77;;;;;;;;;;6283169;22;20442;-43
2022/10/24 08:02:39;;;;;;;1.87;0.40;;;;;;;;;;6272839;22;20026;-43
2022/10/24 08:05:06;;;;;;;1.75;0.50;;;;;;;;;;6282815;22;20438;-45
2022/10/24 08:07:34;;;;;;;3.33;0.82;;;;;;;;;;6276708;22;20011;-43
2022/10/24 08:10:01;;;;;;;4.00;1.30;;;;;;;;;;6262155;22;20295;-43
2022/10/24 08:12:27;;;;;;;1.98;0.47;;;;;;;;;;6265923;22;20467;-42
2022/10/24 08:14:55;;;;;;;1.97;0.57;;;;;;;;;;6267555;22;20030;-47
2022/10/24 08:17:22;;;;;;;1.70;0.40;;;;;;;;;;6268185;22;20034;-43
2022/10/24 08:19:50;;;;;;;2.50;0.80;;;;;;;;;;6240601;22;20023;-43
2022/10/24 08:22:16;;;;;;;2.60;0.55;;;;;;;;;;6271400;22;20022;-44
2022/10/24 08:24:43;;;;;;;1.60;0.40;;;;;;;;;;6287429;22;20602;-43
2022/10/24 08:27:09;;;;;;;1.83;0.40;;;;;;;;;;6256666;22;20311;-41
2022/10/24 08:29:36;;;;;;;2.05;0.63;;;;;;;;;;6280928;22;20019;-43
2022/10/24 08:32:02;;;;;;;1.63;0.50;;;;;;;;;;6284038;22;20015;-42
2022/10/24 08:34:29;;;;;;;5.45;0.73;;;;;;;;;;6286021;22;20060;-45
2022/10/24 08:36:57;;;;;;;2.10;0.60;;;;;;;;;;6276933;22;20011;-43
2022/10/24 08:39:25;;;;;;;1.53;0.40;;;;;;;;;;6283880;22;20019;-46
2022/10/24 08:41:54;;;;;;;1.95;0.52;;;;;;;;;;6284306;22;20019;-44
2022/10/24 08:44:26;;;;;;;1.65;0.43;;;;;;;;;;6254474;22;20069;-44
2022/10/24 08:46:55;;;;;;;1.42;0.30;;;;;;;;;;6286719;22;20023;-44
2022/10/24 08:49:26;;;;;;;1.33;0.30;;;;;;;;;;6277659;22;20462;-47
2022/10/24 08:51:56;;;;;;;2.23;0.50;;;;;;;;;;6285530;22;20061;-47
2022/10/24 08:54:28;;;;;;;1.25;0.20;;;;;;;;;;6285280;22;20038;-44
2022/10/24 08:56:56;;;;;;;1.80;0.50;;;;;;;;;;6286171;22;20011;-42
2022/10/24 08:59:25;;;;;;;1.90;0.70;;;;;;;;;;6282978;22;20018;-48
2022/10/24 09:01:55;;;;;;;1.58;0.40;;;;;;;;;;6261271;22;20435;-44
2022/10/24 09:04:25;;;;;;;2.60;0.97;;;;;;;;;;6286802;22;20011;-42
2022/10/24 09:06:52;;;;;;;1.63;0.30;;;;;;;;;;6283240;22;20015;-43
2022/10/24 09:09:21;;;;;;;2.70;0.80;;;;;;;;;;6283517;22;20084;-42
2022/10/24 09:11:50;;;;;;;2.08;0.60;;;;;;;;;;6282032;22;20515;-45
2022/10/24 09:14:18;;;;;;;2.00;0.63;;;;;;;;;;6285734;22;20022;-43
2022/10/24 09:16:45;;;;;;;2.00;0.40;;;;;;;;;;6285966;22;20081;-42
2022/10/24 09:19:13;;;;;;;2.75;0.80;;;;;;;;;;6286827;22;20027;-42
2022/10/24 09:21:40;;;;;;;2.00;0.60;;;;;;;;;;6283626;22;20023;-43
2022/10/24 09:24:07;;;;;;;1.60;0.40;;;;;;;;;;6288128;22;20015;-42
2022/10/24 09:26:36;;;;;;;1.65;0.35;;;;;;;;;;6285448;22;20015;-45
2022/10/24 09:29:04;;;;;;;1.83;0.50;;;;;;;;;;6288895;22;20015;-44
2022/10/24 09:31:30;;;;;;;1.30;0.20;;;;;;;;;;6287107;22;20077;-42
2022/10/24 09:33:59;;;;;;;1.58;0.30;;;;;;;;;;6282071;22;20210;-42
2022/10/24 09:36:29;;;;;;;2.70;0.68;;;;;;;;;;6287956;22;20015;-42
2022/10/24 09:38:55;;;;;;;1.52;0.40;;;;;;;;;;6256084;22;20121;-45
2022/10/24 09:41:23;;;;;;;1.50;0.30;;;;;;;;;;6257713;22;20092;-43
2022/10/24 09:43:53;;;;;;;1.73;0.40;;;;;;;;;;6284998;22;20018;-44
2022/10/24 09:46:22;;;;;;;1.70;0.40;;;;;;;;;;6288801;22;20015;-44
2022/10/24 09:48:51;;;;;;;3.60;0.50;;;;;;;;;;6285564;22;20020;-44
2022/10/24 09:51:20;;;;;;;1.95;0.50;;;;;;;;;;6286492;22;20018;-42
2022/10/24 09:53:58;;;;;;;1.90;0.47;;;;;;;;;;6286657;22;20068;-45
2022/10/24 09:56:32;;;;;;;2.10;0.60;;;;;;;;;;6287378;22;20011;-46
2022/10/24 09:59:15;;;;;;;2.22;0.82;;;;;;;;;;6283812;22;20034;-42
2022/10/24 10:01:44;;;;;;;1.70;0.40;;;;;;;;;;6289787;22;20015;-42
2022/10/24 10:04:15;;;;;;;1.73;0.50;;;;;;;;;;6273108;22;20041;-42
2022/10/24 10:06:44;;;;;;;1.70;0.40;;;;;;;;;;6274005;22;20088;-44
2022/10/24 10:09:12;;;;;;;1.77;0.47;;;;;;;;;;6231827;22;20023;-44
2022/10/24 10:11:39;;;;;;;1.90;0.60;;;;;;;;;;6264684;22;20076;-43
2022/10/24 10:14:16;;;;;;;1.90;0.50;;;;;;;;;;6269602;22;20068;-42
2022/10/24 10:16:44;;;;;;;2.00;0.73;;;;;;;;;;6270807;22;20027;-44
2022/10/24 10:19:14;;;;;;;2.33;1.23;;;;;;;;;;6269369;22;20023;-41
2022/10/24 10:21:55;;;;;;;3.03;0.85;;;;;;;;;;6261860;22;20042;-42
2022/10/24 10:24:25;;;;;;;2.25;0.45;;;;;;;;;;6265893;22;20019;-44
2022/10/24 10:26:52;;;;;;;1.88;0.45;;;;;;;;;;6271686;22;20026;-44
2022/10/24 10:29:23;;;;;;;2.22;1.00;;;;;;;;;;6271002;22;20556;-42
2022/10/24 10:31:54;;;;;;;1.60;0.37;;;;;;;;;;6262831;22;20034;-42
2022/10/24 10:34:25;;;;;;;1.95;0.60;;;;;;;;;;6265907;22;20019;-44
2022/10/24 10:36:59;;;;;;;2.97;1.02;;;;;;;;;;6267944;22;20425;-43
2022/10/24 10:39:33;;;;;;;1.52;0.40;;;;;;;;;;6268473;22;20030;-43
2022/10/24 10:42:02;;;;;;;2.78;1.45;;;;;;;;;;6268762;22;20050;-44
2022/10/24 10:44:35;;;;;;;2.23;0.63;;;;;;;;;;6269760;22;20061;-42
2022/10/24 10:47:09;;;;;;;2.13;0.60;;;;;;;;;;6268466;22;20015;-42
2022/10/24 10:49:38;;;;;;;2.13;0.60;;;;;;;;;;6268643;22;20449;-43
2022/10/24 10:52:07;;;;;;;2.40;0.73;;;;;;;;;;6268532;22;20046;-42
2022/10/24 10:54:43;;;;;;;3.47;0.70;;;;;;;;;;6273477;22;20022;-42
2022/10/24 10:57:11;;;;;;;2.10;0.50;;;;;;;;;;6266041;22;20026;-42
2022/10/24 10:59:51;;;;;;;1.95;0.50;;;;;;;;;;6267655;22;20072;-44
2022/10/24 11:02:26;;;;;;;2.22;0.47;;;;;;;;;;6262373;22;20012;-44
2022/10/24 11:04:57;;;;;;;1.95;0.50;;;;;;;;;;6272654;22;20012;-43
2022/10/24 11:07:28;;;;;;;1.45;0.32;;;;;;;;;;6265647;22;20038;-44
2022/10/24 11:09:57;;;;;;;1.40;0.30;;;;;;;;;;6263149;22;20015;-42
2022/10/24 11:12:25;;;;;;;2.95;0.52;;;;;;;;;;6242255;22;20019;-45
2022/10/24 11:14:56;;;;;;;8.23;1.25;;;;;;;;;;6267422;22;20037;-45
2022/10/24 11:17:27;;;;;;;2.22;0.77;;;;;;;;;;6273892;22;20564;-44
2022/10/24 11:20:00;;;;;;;4.25;1.05;;;;;;;;;;6265484;22;20120;-42
2022/10/24 11:22:28;;;;;;;4.10;0.93;;;;;;;;;;6263618;22;20557;-42
2022/10/24 11:24:57;;;;;;;2.10;0.60;;;;;;;;;;6269654;22;20327;-43
2022/10/24 11:27:26;;;;;;;2.13;0.63;;;;;;;;;;6240318;22;20454;-42
2022/10/24 11:29:55;;;;;;;2.28;0.70;;;;;;;;;;6266023;22;20015;-42
2022/10/24 11:32:26;;;;;;;3.13;1.10;;;;;;;;;;6265210;22;20015;-42
2022/10/24 11:34:56;;;;;;;2.30;0.80;;;;;;;;;;6272113;22;20023;-43
2022/10/24 11:37:26;;;;;;;2.00;0.70;;;;;;;;;;6268231;22;20023;-43
2022/10/24 11:39:55;;;;;;;2.40;0.77;;;;;;;;;;6264834;22;20442;-43
2022/10/24 11:42:25;;;;;;;1.90;0.50;;;;;;;;;;6271598;22;20815;-43
2022/10/24 11:44:54;;;;;;;2.17;0.57;;;;;;;;;;6267187;22;20015;-42
2022/10/24 11:47:34;;;;;;;2.80;0.63;;;;;;;;;;6269301;22;20406;-45
2022/10/24 11:50:04;;;;;;;2.30;0.82;;;;;;;;;;6259992;22;20098;-42
2022/10/24 11:52:32;;;;;;;1.80;0.50;;;;;;;;;;6269631;22;20064;-45
2022/10/24 11:55:01;;;;;;;1.80;0.43;;;;;;;;;;6266368;22;20016;-44
2022/10/24 11:57:29;;;;;;;2.13;0.57;;;;;;;;;;6271265;22;20438;-42
2022/10/24 11:59:57;;;;;;;2.17;0.70;;;;;;;;;;6260303;22;20519;-47
2022/10/24 12:02:57;;;;;;;4.03;0.95;;;;;;;;;;6268357;22;20660;-42
2022/10/24 12:05:29;;;;;;;2.78;0.70;;;;;;;;;;6144468;23;20020;-43
2022/10/24 12:08:12;;;;;;;2.30;0.93;;;;;;;;;;6143161;23;20025;-43
2022/10/24 12:10:51;;;;;;;1.85;0.43;;;;;;;;;;6206526;22;20076;-45
2022/10/24 12:13:32;;;;;;;5.80;1.00;;;;;;;;;;6264152;22;20354;-42
2022/10/24 12:16:02;;;;;;;4.60;0.90;;;;;;;;;;6257709;22;20023;-42
2022/10/24 12:18:30;;;;;;;2.83;0.60;;;;;;;;;;6266969;22;20026;-42
2022/10/24 12:21:03;;;;;;;5.82;1.85;;;;;;;;;;6257820;22;20027;-42
2022/10/24 12:23:30;;;;;;;6.38;0.77;;;;;;;;;;6264460;22;20459;-43
2022/10/24 12:26:04;;;;;;;2.00;0.60;;;;;;;;;;6270523;22;20015;-43
2022/10/24 12:28:30;;;;;;;2.58;0.93;;;;;;;;;;6270611;22;20081;-44
2022/10/24 12:31:08;;;;;;;3.83;1.15;;;;;;;;;;6256333;22;20069;-43
2022/10/24 12:33:34;;;;;;;3.38;1.48;;;;;;;;;;6265321;22;20057;-44
2022/10/24 12:36:03;;;;;;;4.15;1.15;;;;;;;;;;6261092;22;20022;-45
2022/10/24 12:38:48;;;;;;;2.10;0.70;;;;;;;;;;6265766;22;20027;-43
2022/10/24 12:41:29;;;;;;;2.88;1.48;;;;;;;;;;6231373;22;20019;-45
2022/10/24 12:44:10;;;;;;;1.85;0.50;;;;;;;;;;6260513;22;20416;-46
2022/10/24 12:46:53;;;;;;;2.65;1.20;;;;;;;;;;6239062;22;20715;-42
2022/10/24 12:49:26;;;;;;;1.80;0.52;;;;;;;;;;6270393;22;20018;-43
2022/10/24 12:51:54;;;;;;;4.90;1.37;;;;;;;;;;6224462;22;20479;-42
2022/10/24 12:54:36;;;;;;;1.42;0.32;;;;;;;;;;6262414;22;20022;-46
2022/10/24 12:57:22;;;;;;;5.40;1.75;;;;;;;;;;6259099;22;20019;-43
2022/10/24 12:59:50;;;;;;;1.70;0.40;;;;;;;;;;6257362;22;20023;-43
2022/10/24 13:02:37;;;;;;;2.95;1.35;;;;;;;;;;6256993;22;20315;-43
2022/10/24 13:05:11;;;;;;;4.70;1.50;;;;;;;;;;6261496;22;20104;-45
2022/10/24 13:07:56;;;;;;;6.60;1.17;;;;;;;;;;6267530;22;20307;-43
2022/10/24 13:10:40;;;;;;;3.42;1.05;;;;;;;;;;6259564;22;20016;-44
2022/10/24 13:13:21;;;;;;;4.88;1.40;;;;;;;;;;6250096;22;20023;-44
2022/10/24 13:15:50;;;;;;;4.15;0.75;;;;;;;;;;6243224;22;20477;-43
2022/10/24 13:18:28;;;;;;;1.90;0.60;;;;;;;;;;6271730;22;20012;-43
2022/10/24 13:21:07;;;;;;;3.17;1.13;;;;;;;;;;6287926;22;20022;-44
2022/10/24 13:23:35;;;;;;;3.17;0.95;;;;;;;;;;6256332;22;20015;-43
2022/10/24 13:26:02;;;;;;;2.92;1.45;;;;;;;;;;6283401;22;20015;-43
2022/10/24 13:28:39;;;;;;;2.47;0.95;;;;;;;;;;6287713;22;20019;-46
2022/10/24 13:31:24;;;;;;;2.90;0.90;;;;;;;;;;6282521;22;20046;-44
2022/10/24 13:33:52;;;;;;;2.63;0.52;;;;;;;;;;6282244;22;20011;-42
2022/10/24 13:36:21;;;;;;;1.98;0.55;;;;;;;;;;6257207;22;20879;-43
2022/10/24 13:38:52;;;;;;;3.55;0.85;;;;;;;;;;6283411;22;20407;-44
2022/10/24 13:41:25;;;;;;;2.15;0.60;;;;;;;;;;6285518;22;20454;-43
2022/10/24 13:43:52;;;;;;;6.67;0.90;;;;;;;;;;6282827;22;20045;-45
2022/10/24 13:46:23;;;;;;;4.35;1.20;;;;;;;;;;6285692;22;20519;-44
2022/10/24 13:48:51;;;;;;;2.30;0.82;;;;;;;;;;6281231;22;20019;-45
2022/10/24 13:51:19;;;;;;;3.25;1.08;;;;;;;;;;6285127;22;20632;-44
2022/10/24 13:53:49;;;;;;;3.63;1.10;;;;;;;;;;6285610;22;20043;-44
2022/10/24 13:56:17;;;;;;;1.83;0.43;;;;;;;;;;6281973;22;20022;-46
2022/10/24 13:58:44;;;;;;;2.13;0.70;;;;;;;;;;6283337;22;20454;-44
2022/10/24 14:01:15;;;;;;;3.03;0.88;;;;;;;;;;6283365;22;20015;-43
2022/10/24 14:03:42;;;;;;;1.60;0.40;;;;;;;;;;6283611;22;20033;-45
2022/10/24 14:06:09;;;;;;;2.58;0.60;;;;;;;;;;6278033;22;20060;-43
2022/10/24 14:08:37;;;;;;;2.37;0.67;;;;;;;;;;6287107;22;20470;-45
2022/10/24 14:11:05;;;;;;;3.85;1.25;;;;;;;;;;6284040;22;20019;-49
2022/10/24 14:13:36;;;;;;;2.42;0.80;;;;;;;;;;6287572;22;20064;-43
2022/10/24 14:16:03;;;;;;;1.90;0.55;;;;;;;;;;6284256;22;20019;-45
2022/10/24 14:18:31;;;;;;;2.00;0.60;;;;;;;;;;6284503;22;20086;-43
2022/10/24 14:20:59;;;;;;;2.07;0.67;;;;;;;;;;6283232;22;20030;-45
2022/10/24 14:23:27;;;;;;;2.08;0.57;;;;;;;;;;6283891;22;20530;-47
2022/10/24 14:25:54;;;;;;;1.50;0.32;;;;;;;;;;6287512;22;20023;-47
2022/10/24 14:28:23;;;;;;;2.00;0.60;;;;;;;;;;6254781;22;20011;-44
2022/10/24 14:30:54;;;;;;;1.92;0.55;;;;;;;;;;6286275;22;20019;-44
2022/10/24 14:33:22;;;;;;;1.80;0.40;;;;;;;;;;6285851;22;20011;-44
2022/10/24 14:35:49;;;;;;;2.00;0.70;;;;;;;;;;6283427;22;20019;-46
2022/10/24 14:38:16;;;;;;;2.10;0.50;;;;;;;;;;6256733;22;20472;-46
2022/10/24 14:40:44;;;;;;;2.15;0.70;;;;;;;;;;6290093;22;20133;-45
2022/10/24 14:43:14;;;;;;;1.73;0.40;;;;;;;;;;6279037;22;20069;-46
2022/10/24 14:45:40;;;;;;;1.60;0.50;;;;;;;;;;6284596;22;20442;-44
2022/10/24 14:48:22;;;;;;;2.03;0.57;;;;;;;;;;6282947;22;20541;-44
2022/10/24 14:50:49;;;;;;;1.50;0.38;;;;;;;;;;6257335;22;20074;-43
2022/10/24 14:53:20;;;;;;;1.60;0.40;;;;;;;;;;6287982;22;20591;-44